Time;durP1;ratioP1;P1;durP2;ratioP2;P2;SDS_P1;SDS_P2;PMS_P1;PMS_P2;Temp;Humidity;BMP_temperature;BMP_pressure;BME280_temperature;BME280_humidity;BME280_pressure;Samples;Min_cycle;Max_cycle;Signal;HPM_P1;HPM_P2
2021/09/28 00:00:43;;;;;;;16.65;13.15;;;14.40;99.90;;;;;;5054152;28;20021;-75
2021/09/28 00:03:08;;;;;;;15.60;12.52;;;14.40;99.90;;;;;;5054464;28;20025;-74
2021/09/28 00:05:34;;;;;;;18.70;12.23;;;14.40;99.90;;;;;;5054074;28;20075;-75
2021/09/28 00:08:00;;;;;;;16.48;13.15;;;14.40;99.90;;;;;;5054235;28;20051;-75
2021/09/28 00:10:25;;;;;;;17.52;12.05;;;14.40;99.90;;;;;;5053924;28;20099;-74
2021/09/28 00:12:51;;;;;;;16.65;12.45;;;14.40;99.90;;;;;;5053990;28;20021;-74
2021/09/28 00:15:17;;;;;;;19.60;13.65;;;14.40;99.90;;;;;;5054172;28;20033;-74
2021/09/28 00:17:44;;;;;;;18.58;12.57;;;14.40;99.90;;;;;;5053699;28;20080;-75
2021/09/28 00:20:10;;;;;;;19.13;13.80;;;14.40;99.90;;;;;;5053740;28;20056;-75
2021/09/28 00:22:37;;;;;;;16.95;13.45;;;14.30;99.90;;;;;;5053689;28;20021;-75
2021/09/28 00:25:05;;;;;;;20.27;14.10;;;14.30;99.90;;;;;;5053631;28;20069;-75
2021/09/28 00:27:31;;;;;;;20.23;14.18;;;14.30;99.90;;;;;;5053711;28;20025;-75
2021/09/28 00:29:56;;;;;;;26.63;18.67;;;14.30;99.90;;;;;;5054136;28;20048;-74
2021/09/28 00:32:22;;;;;;;205.75;121.25;;;14.30;99.90;;;;;;5053398;28;20021;-75
2021/09/28 00:34:47;;;;;;;248.70;143.13;;;14.30;99.90;;;;;;5054574;28;20033;-74
2021/09/28 00:37:13;;;;;;;62.10;37.88;;;14.20;99.90;;;;;;5073928;28;20520;-75
2021/09/28 00:39:39;;;;;;;23.33;17.55;;;14.20;99.90;;;;;;5065915;28;20025;-74
2021/09/28 00:42:05;;;;;;;24.50;16.40;;;14.20;99.90;;;;;;5053497;28;20039;-74
2021/09/28 00:44:41;;;;;;;19.15;15.18;;;14.30;99.90;;;;;;5053907;28;20029;-75
2021/09/28 00:47:08;;;;;;;23.75;15.88;;;14.30;99.90;;;;;;5053967;28;20416;-74
2021/09/28 00:49:34;;;;;;;18.95;15.20;;;14.30;99.90;;;;;;5053659;28;20024;-74
2021/09/28 00:52:00;;;;;;;20.48;14.80;;;14.30;99.90;;;;;;5052136;28;20021;-74
2021/09/28 00:54:26;;;;;;;20.90;14.40;;;14.30;99.90;;;;;;5053373;28;20113;-73
2021/09/28 00:56:52;;;;;;;22.15;14.25;;;14.30;99.90;;;;;;5053453;28;20032;-74
2021/09/28 00:59:20;;;;;;;18.27;14.23;;;14.30;99.90;;;;;;5053889;28;20021;-74
2021/09/28 01:01:46;;;;;;;19.65;14.07;;;14.30;99.90;;;;;;5053458;28;20018;-75
2021/09/28 01:04:16;;;;;;;20.80;14.95;;;14.40;99.90;;;;;;5053419;28;20077;-74
2021/09/28 01:06:43;;;;;;;19.20;14.40;;;14.40;99.90;;;;;;5052975;28;20071;-74
2021/09/28 01:09:13;;;;;;;19.60;14.43;;;14.40;99.90;;;;;;5053082;28;20056;-74
2021/09/28 01:11:39;;;;;;;21.25;14.68;;;14.50;99.90;;;;;;5053297;28;20037;-74
2021/09/28 01:14:06;;;;;;;17.08;13.25;;;14.50;99.90;;;;;;5051736;28;20064;-74
2021/09/28 01:16:32;;;;;;;23.48;14.27;;;14.60;99.90;;;;;;5053005;28;20039;-75
2021/09/28 01:18:58;;;;;;;20.80;14.82;;;14.60;99.90;;;;;;5053012;28;20392;-74
2021/09/28 01:21:23;;;;;;;20.48;13.98;;;14.60;99.90;;;;;;5053176;28;20037;-74
2021/09/28 01:23:49;;;;;;;20.30;14.15;;;14.60;99.90;;;;;;5052884;28;20063;-74
2021/09/28 01:26:17;;;;;;;20.15;14.00;;;14.60;99.90;;;;;;5053041;28;20025;-74
2021/09/28 01:28:44;;;;;;;18.92;14.18;;;14.70;99.90;;;;;;5052710;28;20108;-74
2021/09/28 01:31:11;;;;;;;19.98;14.10;;;14.70;99.90;;;;;;5051722;28;20039;-74
2021/09/28 01:33:36;;;;;;;18.80;13.40;;;14.70;99.90;;;;;;5056180;28;20033;-74
2021/09/28 01:36:02;;;;;;;19.85;14.68;;;14.80;99.90;;;;;;5057536;28;20047;-74
2021/09/28 01:38:28;;;;;;;17.98;13.13;;;14.80;99.90;;;;;;5056962;28;20346;-75
2021/09/28 01:40:54;;;;;;;19.25;13.57;;;14.80;99.90;;;;;;5056741;28;20033;-74
2021/09/28 01:43:20;;;;;;;17.20;12.80;;;14.80;99.90;;;;;;5056303;28;20021;-74
2021/09/28 01:45:47;;;;;;;19.48;12.23;;;14.80;99.90;;;;;;5056715;28;20013;-74
2021/09/28 01:48:13;;;;;;;18.13;12.45;;;14.80;99.90;;;;;;5056643;28;20079;-75
2021/09/28 01:50:39;;;;;;;17.25;12.65;;;14.80;99.90;;;;;;5056701;28;20028;-74
2021/09/28 01:53:05;;;;;;;16.83;12.90;;;14.80;99.90;;;;;;5055277;28;20029;-75
2021/09/28 01:55:30;;;;;;;17.15;11.77;;;14.80;99.90;;;;;;5056614;28;20511;-75
2021/09/28 01:57:56;;;;;;;15.63;11.77;;;14.80;99.90;;;;;;5056462;28;20060;-75
2021/09/28 02:00:23;;;;;;;23.58;12.05;;;14.80;99.90;;;;;;5056396;28;20067;-74
2021/09/28 02:02:48;;;;;;;14.27;11.98;;;14.70;99.90;;;;;;5056481;28;20090;-74
2021/09/28 02:05:14;;;;;;;16.15;12.07;;;14.70;99.90;;;;;;5056257;28;20454;-74
2021/09/28 02:07:40;;;;;;;17.35;12.75;;;14.70;99.90;;;;;;5057198;28;20036;-75
2021/09/28 02:10:06;;;;;;;18.27;12.07;;;14.60;99.90;;;;;;5056494;28;20104;-74
2021/09/28 02:12:35;;;;;;;17.55;12.07;;;14.60;99.90;;;;;;5056266;28;20029;-74
2021/09/28 02:15:00;;;;;;;15.95;11.38;;;14.60;99.90;;;;;;5054993;28;20064;-74
2021/09/28 02:17:26;;;;;;;15.02;11.88;;;14.60;99.90;;;;;;5055887;28;20068;-75
2021/09/28 02:19:51;;;;;;;16.02;11.93;;;14.60;99.90;;;;;;5056155;28;20415;-75
2021/09/28 02:22:17;;;;;;;19.08;11.60;;;14.60;99.90;;;;;;5055387;28;20033;-74
2021/09/28 02:24:43;;;;;;;17.35;12.15;;;14.50;99.90;;;;;;5055989;28;20031;-74
2021/09/28 02:27:08;;;;;;;18.90;12.88;;;14.50;99.90;;;;;;5055970;28;20021;-75
2021/09/28 02:29:34;;;;;;;17.33;11.63;;;14.50;99.90;;;;;;5054440;28;20017;-74
2021/09/28 02:32:00;;;;;;;16.95;12.25;;;14.50;99.90;;;;;;5055988;28;20024;-75
2021/09/28 02:34:25;;;;;;;18.42;11.60;;;14.40;99.90;;;;;;5056073;28;20021;-74
2021/09/28 02:36:51;;;;;;;17.08;11.93;;;14.40;99.90;;;;;;5056237;28;20056;-74
2021/09/28 02:39:18;;;;;;;17.42;12.18;;;14.40;99.90;;;;;;5055582;28;20024;-74
2021/09/28 02:41:44;;;;;;;17.92;12.18;;;14.30;99.90;;;;;;5055650;28;20025;-74
2021/09/28 02:44:09;;;;;;;18.60;12.57;;;14.30;99.90;;;;;;5054547;28;20013;-75
2021/09/28 02:46:35;;;;;;;15.32;12.00;;;14.30;99.90;;;;;;5055528;28;20095;-74
2021/09/28 02:49:01;;;;;;;15.18;12.23;;;14.30;99.90;;;;;;5069601;28;20016;-74
2021/09/28 02:51:26;;;;;;;17.13;13.23;;;14.30;99.90;;;;;;5055557;28;20025;-75
2021/09/28 02:53:52;;;;;;;18.23;13.10;;;14.30;99.90;;;;;;5055425;28;20078;-75
2021/09/28 02:56:18;;;;;;;18.65;12.00;;;14.30;99.90;;;;;;5055361;28;20091;-74
2021/09/28 02:58:43;;;;;;;16.77;12.48;;;14.30;99.90;;;;;;5055735;28;20308;-75
2021/09/28 03:01:09;;;;;;;16.27;12.25;;;14.30;99.90;;;;;;5055045;28;20025;-75
2021/09/28 03:03:34;;;;;;;19.73;12.10;;;14.30;99.90;;;;;;5054999;28;20047;-74
2021/09/28 03:06:00;;;;;;;17.02;12.13;;;14.30;99.90;;;;;;5055208;28;20031;-74
2021/09/28 03:08:25;;;;;;;14.25;12.10;;;14.30;99.90;;;;;;5055888;28;20032;-75
2021/09/28 03:10:51;;;;;;;18.13;12.93;;;14.30;99.90;;;;;;5055118;28;20461;-75
2021/09/28 03:13:16;;;;;;;16.30;12.55;;;14.30;99.90;;;;;;5061370;28;20033;-75
2021/09/28 03:15:42;;;;;;;15.68;11.93;;;14.30;99.90;;;;;;5075190;28;20024;-75
2021/09/28 03:18:08;;;;;;;14.52;11.77;;;14.40;99.90;;;;;;5069343;28;20060;-74
2021/09/28 03:20:35;;;;;;;20.30;12.80;;;14.40;99.90;;;;;;5055155;28;20025;-75
2021/09/28 03:23:01;;;;;;;15.20;12.32;;;14.40;99.90;;;;;;5055214;28;20045;-75
2021/09/28 03:25:26;;;;;;;14.13;11.68;;;14.40;99.90;;;;;;5054862;28;20048;-75
2021/09/28 03:27:52;;;;;;;14.93;11.10;;;14.40;99.90;;;;;;5055055;28;20079;-74
2021/09/28 03:30:18;;;;;;;13.93;10.82;;;14.40;99.90;;;;;;5054831;28;20525;-75
2021/09/28 03:32:43;;;;;;;18.13;11.73;;;14.40;99.90;;;;;;5054769;28;20033;-74
2021/09/28 03:35:10;;;;;;;14.85;12.05;;;14.40;99.90;;;;;;5053794;28;20028;-75
2021/09/28 03:37:37;;;;;;;20.77;13.25;;;14.30;99.90;;;;;;5053435;28;20029;-74
2021/09/28 03:40:04;;;;;;;16.00;11.50;;;14.30;99.90;;;;;;5054560;28;20025;-74
2021/09/28 03:42:30;;;;;;;17.45;12.15;;;14.30;99.90;;;;;;5054557;28;20083;-74
2021/09/28 03:44:56;;;;;;;16.05;12.18;;;14.30;99.90;;;;;;5054581;28;20355;-74
2021/09/28 03:47:21;;;;;;;15.20;12.27;;;14.20;99.90;;;;;;5054844;28;20083;-75
2021/09/28 03:49:47;;;;;;;18.45;13.18;;;14.20;99.90;;;;;;5053396;28;20029;-75
2021/09/28 03:52:12;;;;;;;19.27;13.10;;;14.20;99.90;;;;;;5054493;28;20029;-75
2021/09/28 03:54:38;;;;;;;19.70;13.00;;;14.10;99.90;;;;;;5054678;28;20359;-74
2021/09/28 03:57:04;;;;;;;20.25;13.90;;;14.10;99.90;;;;;;5066985;28;20020;-75
2021/09/28 03:59:30;;;;;;;20.92;13.35;;;14.10;99.90;;;;;;5069730;28;20034;-75
2021/09/28 04:01:55;;;;;;;17.08;13.40;;;14.10;99.90;;;;;;5054105;28;20078;-75
2021/09/28 04:04:21;;;;;;;19.80;14.02;;;14.10;99.90;;;;;;5052850;28;20371;-75
2021/09/28 04:06:46;;;;;;;26.00;16.27;;;14.10;99.90;;;;;;5052789;28;20025;-75
2021/09/28 04:09:12;;;;;;;24.88;16.25;;;14.10;99.90;;;;;;5052642;28;20017;-75
2021/09/28 04:11:37;;;;;;;19.27;14.20;;;14.10;99.90;;;;;;5052655;28;20026;-75
2021/09/28 04:14:05;;;;;;;24.13;17.08;;;14.20;99.90;;;;;;5053073;28;20124;-75
2021/09/28 04:16:32;;;;;;;23.25;16.00;;;14.20;99.90;;;;;;5052389;28;20079;-75
2021/09/28 04:18:57;;;;;;;21.70;15.88;;;14.30;99.90;;;;;;5049477;28;20075;-75
2021/09/28 04:21:25;;;;;;;22.55;15.93;;;14.40;99.90;;;;;;5033863;28;20108;-75
2021/09/28 04:23:51;;;;;;;26.58;16.60;;;14.40;99.90;;;;;;5032837;28;20144;-75
2021/09/28 04:26:17;;;;;;;21.45;16.13;;;14.40;99.90;;;;;;5034078;28;20056;-75
2021/09/28 04:28:43;;;;;;;22.30;15.77;;;14.50;99.90;;;;;;5034627;28;20385;-78
2021/09/28 04:31:12;;;;;;;20.98;15.73;;;14.50;99.90;;;;;;5050807;28;20035;-77
2021/09/28 04:33:37;;;;;;;18.85;14.80;;;14.60;99.90;;;;;;5043706;28;20025;-77
2021/09/28 04:36:03;;;;;;;19.48;14.23;;;14.60;99.90;;;;;;5050469;28;20021;-78
2021/09/28 04:38:29;;;;;;;17.98;13.73;;;14.60;99.90;;;;;;5044891;28;20116;-77
2021/09/28 04:40:55;;;;;;;18.75;13.13;;;14.60;99.90;;;;;;5049817;28;20052;-77
2021/09/28 04:43:20;;;;;;;17.67;13.27;;;14.60;99.90;;;;;;5047991;28;20028;-77
2021/09/28 04:45:46;;;;;;;19.25;13.35;;;14.60;99.90;;;;;;5047792;28;20021;-77
2021/09/28 04:48:11;;;;;;;18.33;13.57;;;14.70;99.90;;;;;;5040508;28;20028;-77
2021/09/28 04:50:37;;;;;;;17.83;13.00;;;14.70;99.90;;;;;;5048775;28;20128;-77
2021/09/28 04:53:03;;;;;;;15.82;12.93;;;14.70;99.90;;;;;;5050120;28;20482;-78
2021/09/28 04:55:28;;;;;;;21.38;12.75;;;14.70;99.90;;;;;;5049142;28;20039;-77
2021/09/28 04:57:54;;;;;;;19.15;12.48;;;14.70;99.90;;;;;;5051921;28;20027;-76
2021/09/28 05:00:20;;;;;;;13.45;10.75;;;14.70;99.90;;;;;;5050368;28;20068;-77
2021/09/28 05:02:45;;;;;;;13.90;11.00;;;14.70;99.90;;;;;;5047905;28;20703;-79
2021/09/28 05:05:11;;;;;;;15.18;11.05;;;14.70;99.90;;;;;;5044148;28;20013;-79
2021/09/28 05:07:37;;;;;;;19.05;10.10;;;14.70;99.90;;;;;;5043742;28;20036;-78
2021/09/28 05:10:03;;;;;;;11.65;9.13;;;14.70;99.90;;;;;;5052105;28;20029;-77
2021/09/28 05:12:29;;;;;;;10.95;9.50;;;14.70;99.90;;;;;;5053658;28;20048;-76
2021/09/28 05:14:56;;;;;;;11.48;9.27;;;14.70;99.90;;;;;;5057907;28;20107;-76
2021/09/28 05:17:22;;;;;;;11.85;8.60;;;14.70;99.90;;;;;;5060000;28;20060;-77
2021/09/28 05:19:48;;;;;;;11.57;8.63;;;14.60;99.90;;;;;;5052125;28;20029;-75
2021/09/28 05:22:20;;;;;;;9.65;8.00;;;14.60;99.90;;;;;;5071341;23;20059;-76
2021/09/28 05:24:59;;;;;;;10.27;7.65;;;14.60;99.90;;;;;;5073444;28;20027;-74
2021/09/28 05:27:25;;;;;;;11.88;8.38;;;14.60;99.90;;;;;;5071079;28;20024;-76
2021/09/28 05:29:51;;;;;;;10.73;7.60;;;14.60;99.90;;;;;;5073526;28;20031;-76
2021/09/28 05:32:16;;;;;;;9.65;7.75;;;14.60;99.90;;;;;;5073238;28;20133;-73
2021/09/28 05:34:42;;;;;;;10.38;7.63;;;14.60;99.90;;;;;;5072226;28;20028;-73
2021/09/28 05:37:07;;;;;;;13.70;7.47;;;14.60;99.90;;;;;;5072370;28;20107;-73
2021/09/28 05:39:33;;;;;;;7.82;6.05;;;14.60;99.90;;;;;;5071377;28;20253;-75
2021/09/28 05:41:59;;;;;;;6.90;5.38;;;14.60;99.90;;;;;;5073318;28;20037;-73
2021/09/28 05:44:25;;;;;;;9.20;5.50;;;14.60;99.90;;;;;;5085091;28;20104;-78
2021/09/28 05:46:50;;;;;;;10.05;5.50;;;14.60;99.90;;;;;;5069609;28;20183;-77
2021/09/28 05:49:16;;;;;;;9.00;5.30;;;14.60;99.90;;;;;;5066712;28;20040;-77
2021/09/28 05:52:01;;;;;;;7.35;4.20;;;14.60;99.90;;;;;;5067351;28;20026;-77
2021/09/28 05:54:27;;;;;;;7.43;3.63;;;14.60;99.90;;;;;;5070908;28;20052;-76
2021/09/28 05:56:53;;;;;;;6.30;3.67;;;14.50;99.90;;;;;;5069812;28;20473;-76
2021/09/28 05:59:20;;;;;;;7.13;3.70;;;14.50;99.90;;;;;;5067375;28;20062;-76
2021/09/28 06:01:48;;;;;;;5.82;3.25;;;14.50;99.90;;;;;;5066216;28;20048;-75
2021/09/28 06:04:14;;;;;;;5.85;2.97;;;14.50;99.90;;;;;;5063230;28;20468;-75
2021/09/28 06:06:41;;;;;;;4.00;2.60;;;14.50;99.90;;;;;;5066485;28;20048;-75
2021/09/28 06:09:07;;;;;;;6.30;2.47;;;14.50;99.90;;;;;;5069500;28;20109;-74
2021/09/28 06:11:33;;;;;;;5.13;2.35;;;14.50;99.90;;;;;;5070638;28;20044;-75
2021/09/28 06:13:58;;;;;;;7.97;3.05;;;14.50;99.90;;;;;;5069095;28;20103;-74
2021/09/28 06:16:24;;;;;;;4.88;1.77;;;14.40;99.90;;;;;;5070128;28;20528;-75
2021/09/28 06:18:50;;;;;;;2.42;1.65;;;14.50;99.90;;;;;;5071807;28;20388;-74
2021/09/28 06:21:16;;;;;;;3.80;1.88;;;14.50;99.90;;;;;;5074128;28;20024;-74
2021/09/28 06:23:41;;;;;;;2.80;1.70;;;14.50;99.90;;;;;;5070984;28;20366;-75
2021/09/28 06:26:08;;;;;;;2.85;1.42;;;14.50;99.90;;;;;;5071289;28;20013;-75
2021/09/28 06:28:35;;;;;;;1.30;0.90;;;14.50;99.90;;;;;;5067918;28;20016;-75
2021/09/28 06:31:01;;;;;;;1.10;0.88;;;14.50;99.90;;;;;;5072467;28;20479;-74
2021/09/28 06:33:27;;;;;;;0.95;0.80;;;14.40;99.90;;;;;;5072777;28;20064;-74
2021/09/28 06:35:52;;;;;;;1.05;0.90;;;14.40;99.90;;;;;;5075491;28;20025;-74
2021/09/28 06:38:18;;;;;;;0.95;0.80;;;14.30;99.90;;;;;;5075665;28;20040;-74
2021/09/28 06:40:43;;;;;;;1.73;0.82;;;14.10;99.90;;;;;;5075537;28;20036;-73
2021/09/28 06:43:09;;;;;;;1.30;0.90;;;14.00;99.90;;;;;;5075863;28;20021;-75
2021/09/28 06:45:35;;;;;;;1.60;0.80;;;13.90;99.90;;;;;;5075720;28;20381;-75
2021/09/28 06:48:00;;;;;;;2.42;1.10;;;13.70;99.90;;;;;;5075453;28;20040;-74
2021/09/28 06:50:26;;;;;;;1.45;0.80;;;13.60;99.90;;;;;;5075817;28;20021;-74
2021/09/28 06:52:52;;;;;;;1.10;0.93;;;13.60;99.90;;;;;;5074687;28;20028;-77
2021/09/28 06:55:19;;;;;;;1.67;0.90;;;13.50;99.90;;;;;;5063427;28;20078;-77
2021/09/28 06:57:44;;;;;;;1.10;1.00;;;13.50;99.90;;;;;;5069142;28;20078;-75
2021/09/28 07:00:11;;;;;;;2.50;1.15;;;13.40;99.90;;;;;;5074108;28;20024;-75
2021/09/28 07:02:37;;;;;;;2.17;1.05;;;13.40;99.90;;;;;;5073256;28;20027;-76
2021/09/28 07:05:09;;;;;;;1.73;1.20;;;13.30;99.90;;;;;;5070887;28;20025;-76
2021/09/28 07:07:35;;;;;;;3.63;1.23;;;13.30;99.90;;;;;;5069119;28;20043;-73
2021/09/28 07:10:01;;;;;;;1.42;1.10;;;13.40;99.90;;;;;;5058331;28;20024;-76
2021/09/28 07:12:27;;;;;;;1.20;1.10;;;13.40;99.90;;;;;;5064122;28;20155;-77
2021/09/28 07:14:53;;;;;;;3.05;1.10;;;13.30;99.90;;;;;;5069768;28;20527;-74
2021/09/28 07:17:18;;;;;;;1.15;1.00;;;13.40;99.90;;;;;;5073725;28;20029;-73
2021/09/28 07:19:44;;;;;;;1.67;1.00;;;13.40;99.90;;;;;;5076041;28;20028;-72
2021/09/28 07:22:09;;;;;;;2.00;1.23;;;13.40;99.90;;;;;;5074611;28;20039;-72
2021/09/28 07:24:35;;;;;;;0.98;0.90;;;13.40;99.90;;;;;;5074955;28;20021;-75
2021/09/28 07:27:01;;;;;;;1.30;1.10;;;13.40;99.90;;;;;;5074131;28;20017;-75
2021/09/28 07:29:26;;;;;;;3.45;1.17;;;13.50;99.90;;;;;;5068856;28;20052;-77
2021/09/28 07:31:52;;;;;;;1.45;0.90;;;13.50;99.90;;;;;;5072734;28;20085;-76
2021/09/28 07:34:18;;;;;;;1.70;1.00;;;13.50;99.90;;;;;;5074704;28;20024;-75
2021/09/28 07:36:43;;;;;;;3.90;1.38;;;13.50;99.90;;;;;;5074896;28;20033;-76
2021/09/28 07:39:09;;;;;;;2.67;1.13;;;13.50;99.90;;;;;;5073317;28;20031;-76
2021/09/28 07:41:35;;;;;;;2.08;1.30;;;13.60;99.90;;;;;;5074583;28;20025;-72
2021/09/28 07:44:00;;;;;;;1.95;1.30;;;13.60;99.90;;;;;;5074039;28;20027;-72
2021/09/28 07:46:26;;;;;;;3.05;1.80;;;13.50;99.90;;;;;;5073981;28;20457;-72
2021/09/28 07:48:52;;;;;;;1.95;1.40;;;13.50;99.90;;;;;;5064751;28;20029;-74
2021/09/28 07:51:18;;;;;;;3.75;1.63;;;13.50;99.90;;;;;;5072540;28;20051;-78
2021/09/28 07:53:48;;;;;;;3.53;1.70;;;13.50;99.90;;;;;;5069932;28;20094;-72
2021/09/28 07:56:16;;;;;;;2.92;1.40;;;13.50;99.90;;;;;;5073546;28;20024;-72
2021/09/28 07:58:41;;;;;;;5.00;1.60;;;13.50;99.90;;;;;;5064381;28;20393;-72
2021/09/28 08:01:07;;;;;;;2.38;1.45;;;13.60;99.90;;;;;;5073819;28;20060;-72
2021/09/28 08:03:33;;;;;;;1.90;1.40;;;13.60;99.90;;;;;;5073731;28;20032;-72
2021/09/28 08:05:58;;;;;;;2.88;1.70;;;13.60;99.90;;;;;;5075312;28;20473;-78
2021/09/28 08:08:24;;;;;;;2.35;1.67;;;13.60;99.90;;;;;;5068144;28;20025;-78
2021/09/28 08:10:49;;;;;;;2.83;2.50;;;13.60;99.90;;;;;;5071239;28;20029;-74
2021/09/28 08:13:16;;;;;;;2.38;1.70;;;13.60;99.90;;;;;;5073753;28;20036;-74
2021/09/28 08:15:41;;;;;;;3.20;1.80;;;13.50;99.90;;;;;;5073355;28;20373;-74
2021/09/28 08:18:07;;;;;;;3.35;2.10;;;13.60;99.90;;;;;;5073404;28;20036;-74
2021/09/28 08:20:32;;;;;;;3.28;2.22;;;13.60;99.90;;;;;;5073038;28;20029;-74
2021/09/28 08:23:01;;;;;;;5.55;1.92;;;13.60;99.90;;;;;;5061514;28;20049;-74
2021/09/28 08:29:08;;;;;;;4.88;2.08;;;13.70;99.90;;;;;;5065602;28;20111;-77
2021/09/28 08:31:06;;;;;;;3.95;2.03;;;13.80;99.90;;;;;;5065445;28;20078;-77
2021/09/28 08:33:34;;;;;;;4.25;2.33;;;13.90;99.90;;;;;;5057883;28;20028;-78
2021/09/28 08:36:00;;;;;;;4.07;2.00;;;13.90;99.90;;;;;;5069086;28;20028;-75
2021/09/28 08:38:30;;;;;;;3.28;2.05;;;13.90;99.90;;;;;;5069989;28;20032;-75
2021/09/28 08:41:00;;;;;;;4.35;2.05;;;13.90;99.90;;;;;;5073060;28;20040;-75
2021/09/28 08:43:26;;;;;;;2.33;1.75;;;14.00;99.90;;;;;;5072198;28;20086;-75
2021/09/28 08:45:53;;;;;;;3.00;1.90;;;14.00;99.90;;;;;;5066972;28;20021;-74
2021/09/28 08:48:22;;;;;;;3.80;1.80;;;14.00;99.90;;;;;;5068309;28;20027;-73
2021/09/28 08:50:50;;;;;;;3.42;1.70;;;14.00;99.90;;;;;;5071712;28;20456;-75
2021/09/28 08:53:17;;;;;;;5.22;2.22;;;14.10;99.90;;;;;;5058596;28;20442;-72
2021/09/28 08:55:43;;;;;;;4.22;2.05;;;14.00;99.90;;;;;;5071526;28;20032;-77
2021/09/28 08:58:15;;;;;;;3.08;2.00;;;14.00;99.90;;;;;;5073159;28;20036;-76
2021/09/28 09:00:41;;;;;;;1.92;1.70;;;14.10;99.90;;;;;;5070754;28;20024;-77
2021/09/28 09:03:07;;;;;;;2.60;1.90;;;14.00;99.90;;;;;;5070074;28;20036;-78
2021/09/28 09:05:33;;;;;;;2.90;2.00;;;14.10;99.90;;;;;;5072509;28;20460;-78
2021/09/28 09:08:06;;;;;;;3.15;1.95;;;14.10;99.90;;;;;;5072754;28;20441;-78
2021/09/28 09:10:37;;;;;;;2.95;2.03;;;14.10;99.90;;;;;;5072795;28;20085;-78
2021/09/28 09:13:03;;;;;;;3.03;1.83;;;14.10;99.90;;;;;;5055286;28;20059;-74
2021/09/28 09:15:31;;;;;;;3.65;1.95;;;14.10;99.90;;;;;;5067913;28;20052;-73
2021/09/28 09:18:00;;;;;;;3.22;1.90;;;14.20;99.90;;;;;;5068274;28;20115;-74
2021/09/28 09:20:50;;;;;;;3.10;2.00;;;14.30;99.90;;;;;;5059007;28;20451;-79
2021/09/28 09:23:26;;;;;;;2.67;1.63;;;14.40;99.90;;;;;;5063086;28;20040;-79
2021/09/28 09:26:14;;;;;;;1.95;1.50;;;14.50;99.90;;;;;;5055196;28;20028;-79
2021/09/28 09:28:52;;;;;;;3.00;2.40;;;14.70;99.90;;;;;;5062644;28;20624;-79
2021/09/28 09:31:29;;;;;;;3.50;1.60;;;14.80;99.90;;;;;;5063123;28;20032;-79
2021/09/28 09:34:15;;;;;;;2.65;1.60;;;14.90;99.90;;;;;;5064662;28;20036;-79
2021/09/28 09:36:42;;;;;;;3.42;1.70;;;14.90;99.90;;;;;;5063565;28;20028;-79
2021/09/28 09:39:11;;;;;;;3.28;1.70;;;14.90;99.90;;;;;;5056425;28;20070;-79
2021/09/28 09:41:39;;;;;;;3.42;1.67;;;14.90;99.90;;;;;;5064563;28;20058;-79
2021/09/28 09:44:14;;;;;;;2.47;1.70;;;15.00;99.90;;;;;;5064244;28;20376;-79
2021/09/28 09:46:48;;;;;;;5.25;1.88;;;15.00;99.90;;;;;;5063722;28;20025;-79
2021/09/28 09:49:25;;;;;;;3.22;1.67;;;14.90;99.90;;;;;;5064720;28;20067;-79
2021/09/28 09:51:53;;;;;;;3.05;1.65;;;14.90;99.90;;;;;;5055207;28;20037;-79
2021/09/28 09:54:29;;;;;;;4.90;2.58;;;14.90;99.90;;;;;;5063209;28;20028;-77
2021/09/28 09:56:54;;;;;;;4.60;2.15;;;14.90;99.90;;;;;;5072589;28;20059;-75
2021/09/28 09:59:22;;;;;;;3.38;2.80;;;14.90;99.90;;;;;;5078718;28;20052;-75
2021/09/28 10:01:49;;;;;;;4.18;3.38;;;14.90;99.90;;;;;;5075943;28;20055;-75
2021/09/28 10:04:20;;;;;;;3.38;3.00;;;14.80;99.90;;;;;;5074685;28;20383;-74
2021/09/28 10:06:46;;;;;;;3.70;3.10;;;14.80;99.90;;;;;;5076079;28;20120;-73
2021/09/28 10:09:25;;;;;;;5.00;3.22;;;14.70;99.90;;;;;;5075735;28;20064;-73
2021/09/28 10:11:56;;;;;;;5.63;3.85;;;14.70;99.90;;;;;;5075948;28;20032;-73
2021/09/28 10:14:29;;;;;;;7.20;4.15;;;14.60;99.90;;;;;;5075824;28;20024;-73
2021/09/28 10:16:56;;;;;;;4.55;3.80;;;14.60;99.90;;;;;;5074326;28;20115;-74
2021/09/28 10:19:34;;;;;;;4.00;3.60;;;14.60;99.90;;;;;;5074906;28;20036;-78
2021/09/28 10:21:59;;;;;;;5.88;3.17;;;14.70;99.90;;;;;;5072349;28;20036;-79
2021/09/28 10:24:33;;;;;;;7.22;5.13;;;14.70;99.90;;;;;;5073611;28;20043;-76
2021/09/28 10:26:58;;;;;;;5.95;4.32;;;14.80;99.90;;;;;;5075877;28;20070;-76
2021/09/28 10:29:44;;;;;;;6.30;4.40;;;14.80;99.90;;;;;;5087399;28;20036;-76
2021/09/28 10:32:25;;;;;;;5.45;3.80;;;14.90;99.90;;;;;;5095748;28;20020;-77
2021/09/28 10:35:06;;;;;;;7.07;4.00;;;14.80;99.90;;;;;;5095862;28;20035;-77
2021/09/28 10:37:58;;;;;;;4.68;3.42;;;14.80;99.90;;;;;;5076930;28;20531;-75
2021/09/28 10:40:27;;;;;;;6.20;3.67;;;14.90;99.90;;;;;;5054082;28;20107;-78
2021/09/28 10:43:00;;;;;;;8.02;3.95;;;14.90;99.90;;;;;;5085535;28;20364;-78
2021/09/28 10:45:29;;;;;;;7.28;4.00;;;14.90;99.90;;;;;;5067106;28;20473;-79
2021/09/28 10:47:57;;;;;;;4.57;3.28;;;14.90;99.90;;;;;;5074749;28;20082;-78
2021/09/28 10:50:35;;;;;;;5.50;3.47;;;15.00;99.90;;;;;;5065614;28;20315;-77
2021/09/28 10:53:28;;;;;;;7.95;4.18;;;15.00;99.90;;;;;;5074431;28;20139;-77
2021/09/28 10:56:04;;;;;;;5.30;3.50;;;15.00;99.90;;;;;;5064223;28;20423;-77
2021/09/28 10:58:48;;;;;;;8.65;5.85;;;14.90;99.90;;;;;;5075144;28;20036;-77
2021/09/28 11:01:14;;;;;;;6.00;4.07;;;14.80;99.90;;;;;;5071215;28;20021;-77
2021/09/28 11:03:48;;;;;;;5.82;3.08;;;14.80;99.90;;;;;;5075153;28;20025;-77
2021/09/28 11:06:15;;;;;;;6.60;3.43;;;14.90;99.90;;;;;;5074161;28;20020;-77
2021/09/28 11:08:41;;;;;;;7.40;3.60;;;14.90;99.90;;;;;;5061261;28;20111;-74
2021/09/28 11:11:09;;;;;;;5.40;2.95;;;15.10;99.90;;;;;;5074699;28;20031;-77
2021/09/28 11:13:37;;;;;;;6.53;3.80;;;15.20;99.90;;;;;;5075158;28;20437;-77
2021/09/28 11:16:13;;;;;;;4.05;3.10;;;15.20;99.90;;;;;;5067456;28;20055;-77
2021/09/28 11:18:54;;;;;;;4.25;3.22;;;15.30;99.90;;;;;;5074507;28;20031;-74
2021/09/28 11:21:19;;;;;;;5.38;2.92;;;15.30;99.90;;;;;;5074767;28;20070;-74
2021/09/28 11:23:50;;;;;;;6.75;3.60;;;15.40;99.90;;;;;;5074378;28;20472;-74
2021/09/28 11:26:16;;;;;;;4.22;3.50;;;15.40;99.90;;;;;;5068327;28;20021;-77
2021/09/28 11:28:50;;;;;;;6.47;4.70;;;15.50;99.90;;;;;;5074460;28;20048;-77
2021/09/28 11:31:17;;;;;;;4.82;3.10;;;15.60;99.90;;;;;;5074342;28;20107;-77
2021/09/28 11:33:46;;;;;;;6.38;2.80;;;15.70;99.90;;;;;;5074737;28;20460;-77
2021/09/28 11:36:17;;;;;;;6.00;3.85;;;15.70;99.90;;;;;;5066372;28;20047;-77
2021/09/28 11:38:46;;;;;;;4.38;3.28;;;15.60;99.90;;;;;;5074467;28;20166;-77
2021/09/28 11:41:14;;;;;;;5.85;4.57;;;15.60;99.90;;;;;;5074592;28;20376;-77
2021/09/28 11:43:41;;;;;;;3.85;2.60;;;15.70;99.90;;;;;;5072949;28;20039;-77
2021/09/28 11:46:18;;;;;;;4.55;2.83;;;15.70;99.90;;;;;;5074178;28;20472;-77
2021/09/28 11:48:58;;;;;;;5.30;2.40;;;15.90;99.90;;;;;;5074153;28;20110;-77
2021/09/28 11:51:30;;;;;;;4.72;2.28;;;16.00;99.90;;;;;;5073952;28;20029;-77
2021/09/28 11:54:07;;;;;;;5.10;2.80;;;16.00;99.90;;;;;;5074508;28;20032;-77
2021/09/28 11:56:39;;;;;;;5.75;2.50;;;16.10;99.90;;;;;;5073955;28;20477;-77
2021/09/28 11:59:12;;;;;;;4.38;2.65;;;16.20;99.90;;;;;;5072496;28;20039;-77
2021/09/28 12:01:39;;;;;;;5.85;2.78;;;16.30;99.90;;;;;;5070159;28;20674;-79
2021/09/28 12:07:00;;;;;;;2.97;1.92;;;16.30;99.90;;;;;;5063517;28;20245;-79
2021/09/28 12:09:47;;;;;;;6.00;2.92;;;16.40;99.90;;;;;;5067521;28;20451;-79
2021/09/28 12:12:18;;;;;;;3.47;2.10;;;16.50;99.90;;;;;;5067323;28;20079;-79
2021/09/28 12:14:46;;;;;;;3.83;2.00;;;16.50;99.90;;;;;;5067465;28;20052;-79
2021/09/28 12:17:20;;;;;;;2.97;2.10;;;16.50;99.90;;;;;;5071905;28;20064;-76
2021/09/28 12:20:08;;;;;;;2.30;1.80;;;16.50;99.90;;;;;;5070814;28;20074;-76
2021/09/28 12:22:44;;;;;;;3.70;1.92;;;16.60;99.90;;;;;;5071491;28;20395;-74
2021/09/28 12:25:22;;;;;;;3.10;1.90;;;16.60;99.90;;;;;;5071498;28;20017;-77
2021/09/28 12:28:09;;;;;;;4.07;2.20;;;16.60;99.90;;;;;;5067573;28;20021;-79
2021/09/28 12:30:56;;;;;;;2.83;2.05;;;16.90;99.90;;;;;;5065772;28;20037;-79
2021/09/28 12:33:23;;;;;;;3.90;1.88;;;17.00;99.90;;;;;;5066944;28;20028;-79
2021/09/28 12:35:54;;;;;;;3.45;2.00;;;17.20;99.90;;;;;;5065285;28;20103;-79
2021/09/28 12:38:20;;;;;;;6.68;2.55;;;17.30;99.90;;;;;;5062654;28;20034;-79
2021/09/28 12:40:45;;;;;;;3.08;2.33;;;17.30;99.90;;;;;;5067244;28;20032;-79
2021/09/28 12:43:23;;;;;;;4.07;2.42;;;17.20;99.90;;;;;;5067205;28;20070;-79
2021/09/28 12:45:51;;;;;;;8.52;5.80;;;17.10;99.90;;;;;;5067472;28;20822;-79
2021/09/28 12:48:38;;;;;;;5.53;3.60;;;17.00;99.90;;;;;;5066746;28;20051;-79